レイキャビク/ケフラヴィーク の空港の天気 - METARとTAF

ケフラヴィーク国際空港 ( BIKF / KEF ) - アイスランド ケプラヴィーク
飛行場実況気象(Metar)
観測時間01/19 11:00 GMT (01/19 11:00 UTC)
風向・風速西南西 5m/s
視程10km以上
天気現象弱い雪
全天の4割程度の雲 雲底高度 300m
全天の8割程度の雲 雲底高度 640m
全天の8割程度の雲 雲底高度 850m
気温1℃
湿度86%
気圧998hPa
METARBIKF 191100Z 25010KT 9999 -SN SCT010 BKN021 BKN028 01/M01 Q0998
過去の天気等 Google飛行場航空写真 Wunderground天気予報

過去48時間のMETAR

飛行場予報(TAF)
発表時間: 1/19 09:31 GMT (1/19 09:31 UTC)
予報対象時間: 19日9時 GMT ~ 20日9時 GMT
風向・風速西南西 8m/s
視程5000m
天気現象弱い雪
全天の8割程度の雲 雲底高度 150m
全天を覆う雲 雲底高度 300m
19日11時 GMT ~ 19日12時 GMT に徐々に
視程10km以上
天気現象しゅう雪
全天の4割程度の雲 雲底高度 460m
全天の8割程度の雲 雲底高度 910m
19日14時 GMT ~ 20日9時 GMT に一時的に
風向・風速西南西 12m/s 瞬間風速 17m/s
視程2000m
天気現象しゅう雪
全天の8割程度の積乱雲 雲底高度 300m
20日6時 GMT ~ 20日8時 GMT に徐々に
風向・風速西南西 15m/s 瞬間風速 21m/s
TAF AMD BIKF 190931Z 1909/2009 24015KT 5000 -SN BKN005 OVC010 TX02/1914Z TNM01/2003Z
BECMG 1911/1912 9999 SHSN SCT015 BKN030
TEMPO 1914/2009 24023G33KT 2000 SHSN BKN010CB
BECMG 2006/2008 24030G40KT